createdAt,value
2023-05-01T00:00:33.868Z,2.28
2023-05-01T00:03:00.629Z,2.60
2023-05-01T00:05:27.659Z,2.40
2023-05-01T00:07:54.283Z,2.45
2023-05-01T00:10:20.872Z,2.67
2023-05-01T00:12:48.797Z,2.90
2023-05-01T00:15:15.653Z,2.25
2023-05-01T00:17:42.259Z,2.72
2023-05-01T00:20:10.090Z,2.50
2023-05-01T00:22:36.739Z,2.40
2023-05-01T00:25:03.581Z,2.80
2023-05-01T00:27:30.165Z,2.50
2023-05-01T00:29:58.373Z,2.80
2023-05-01T00:32:25.218Z,2.47
2023-05-01T00:34:51.870Z,2.55
2023-05-01T00:37:18.437Z,2.50
2023-05-01T00:39:45.023Z,2.65
2023-05-01T00:42:11.622Z,2.65
2023-05-01T00:44:38.162Z,2.40
2023-05-01T00:47:06.096Z,2.72
2023-05-01T00:49:33.037Z,2.70
2023-05-01T00:51:59.679Z,2.63
2023-05-01T00:54:26.845Z,2.90
2023-05-01T00:56:53.880Z,2.70
2023-05-01T00:59:20.912Z,2.70
2023-05-01T01:01:47.715Z,2.72
2023-05-01T01:04:15.817Z,2.50
2023-05-01T01:06:51.471Z,3.10
2023-05-01T01:09:27.766Z,2.88
2023-05-01T01:12:03.268Z,3.00
2023-05-01T01:14:34.394Z,3.10
2023-05-01T01:17:07.350Z,2.88
2023-05-01T01:20:12.850Z,2.90
2023-05-01T01:22:43.698Z,2.45
2023-05-01T01:25:29.788Z,2.88
2023-05-01T01:28:16.777Z,2.80
2023-05-01T01:31:01.199Z,2.88
2023-05-01T01:33:54.714Z,2.80
2023-05-01T01:36:32.299Z,2.90
2023-05-01T01:39:05.492Z,2.60
2023-05-01T01:41:34.433Z,2.80
2023-05-01T01:44:05.066Z,2.60
2023-05-01T01:46:36.974Z,2.83
2023-05-01T01:49:15.658Z,2.50
2023-05-01T01:51:43.264Z,2.67
2023-05-01T01:54:13.093Z,2.72
2023-05-01T01:56:42.194Z,2.63
2023-05-01T01:59:10.873Z,2.67
2023-05-01T02:01:40.742Z,2.80
2023-05-01T02:04:10.470Z,2.35
2023-05-01T02:06:39.379Z,2.40
2023-05-01T02:09:06.897Z,2.42
2023-05-01T02:11:35.057Z,2.65
2023-05-01T02:14:02.739Z,2.40
2023-05-01T02:16:31.555Z,2.33
2023-05-01T02:18:58.987Z,2.65
2023-05-01T02:21:27.626Z,2.63
2023-05-01T02:23:55.903Z,2.70
2023-05-01T02:26:26.693Z,2.58
2023-05-01T02:28:53.854Z,2.42
2023-05-01T02:31:21.116Z,2.45
2023-05-01T02:33:48.598Z,2.78
2023-05-01T02:36:15.317Z,2.15
2023-05-01T02:38:43.842Z,2.20
2023-05-01T02:41:12.232Z,2.50
2023-05-01T02:43:41.285Z,2.50
2023-05-01T02:46:10.715Z,2.22
2023-05-01T02:48:38.581Z,2.28
2023-05-01T02:51:05.742Z,2.40
2023-05-01T02:53:33.038Z,2.65
2023-05-01T02:56:08.754Z,2.58
2023-05-01T02:58:35.713Z,2.65
2023-05-01T03:01:02.335Z,1.98
2023-05-01T03:03:28.992Z,2.60
2023-05-01T03:05:55.635Z,2.10
2023-05-01T03:08:22.196Z,2.08
2023-05-01T03:10:49.468Z,2.47
2023-05-01T03:13:17.373Z,2.38
2023-05-01T03:15:44.942Z,2.38
2023-05-01T03:18:11.596Z,3.05
2023-05-01T03:20:39.204Z,3.30
2023-05-01T03:23:06.366Z,2.90
2023-05-01T03:25:33.239Z,2.60
2023-05-01T03:27:59.852Z,3.00
2023-05-01T03:30:27.979Z,2.70
2023-05-01T03:32:54.885Z,2.88
2023-05-01T03:35:27.468Z,3.05
2023-05-01T03:37:55.102Z,2.50
2023-05-01T03:40:41.640Z,2.40
2023-05-01T03:43:26.895Z,2.80
2023-05-01T03:45:56.711Z,3.05
2023-05-01T03:48:23.606Z,2.70
2023-05-01T03:50:50.198Z,2.58
2023-05-01T03:53:16.892Z,2.70
2023-05-01T03:55:44.272Z,2.95
2023-05-01T03:58:11.982Z,2.95
2023-05-01T04:00:38.799Z,3.00
2023-05-01T04:03:07.216Z,3.08
2023-05-01T04:05:36.143Z,2.80
2023-05-01T04:08:03.235Z,2.70
2023-05-01T04:10:29.901Z,3.05
2023-05-01T04:13:01.525Z,2.95
2023-05-01T04:15:28.133Z,3.33
2023-05-01T04:17:55.670Z,2.88
2023-05-01T04:20:23.971Z,3.20
2023-05-01T04:22:50.606Z,2.90
2023-05-01T04:25:17.795Z,3.80
2023-05-01T04:27:48.156Z,3.28
2023-05-01T04:30:15.183Z,4.28
2023-05-01T04:32:41.809Z,3.63
2023-05-01T04:35:09.159Z,3.33
2023-05-01T04:37:37.195Z,3.60
2023-05-01T04:40:04.583Z,3.85
2023-05-01T04:42:31.346Z,3.97
2023-05-01T04:44:58.434Z,3.58
2023-05-01T04:47:25.014Z,3.63
2023-05-01T04:49:51.576Z,3.67
2023-05-01T04:52:18.122Z,4.95
2023-05-01T04:54:59.573Z,4.65
2023-05-01T04:57:28.902Z,4.00
2023-05-01T04:59:56.483Z,4.45
2023-05-01T05:02:23.673Z,4.15
2023-05-01T05:04:50.316Z,3.78
2023-05-01T05:07:17.245Z,4.28
2023-05-01T05:10:04.218Z,3.92
2023-05-01T05:12:30.856Z,4.68
2023-05-01T05:14:57.924Z,4.15
2023-05-01T05:17:24.980Z,4.97
2023-05-01T05:19:51.597Z,4.70
2023-05-01T05:22:18.251Z,4.97
2023-05-01T05:25:09.626Z,4.50
2023-05-01T05:27:36.192Z,4.22
2023-05-01T05:30:03.264Z,4.90
2023-05-01T05:32:30.053Z,4.72
2023-05-01T05:34:56.979Z,4.57
2023-05-01T05:37:24.624Z,4.82
2023-05-01T05:39:51.836Z,4.93
2023-05-01T05:42:19.969Z,4.72
2023-05-01T05:44:46.978Z,4.82
2023-05-01T05:47:13.554Z,4.45
2023-05-01T05:49:40.143Z,4.30
2023-05-01T05:52:12.762Z,4.47
2023-05-01T05:54:46.617Z,3.75
2023-05-01T05:57:26.746Z,4.45
2023-05-01T06:00:06.823Z,3.78
2023-05-01T06:02:43.981Z,3.83
2023-05-01T06:05:25.813Z,3.60
2023-05-01T06:07:59.221Z,2.90
2023-05-01T06:10:38.807Z,3.20
2023-05-01T06:13:14.736Z,4.22
2023-05-01T06:15:49.518Z,3.55
2023-05-01T06:18:16.526Z,3.08
2023-05-01T06:20:43.306Z,2.90
2023-05-01T06:23:09.953Z,3.70
2023-05-01T06:25:51.337Z,2.97
2023-05-01T06:28:19.328Z,2.70
2023-05-01T06:30:46.196Z,2.90
2023-05-01T06:33:13.059Z,2.85
2023-05-01T06:35:42.577Z,2.40
2023-05-01T06:38:10.027Z,2.63
2023-05-01T06:40:36.687Z,2.20
2023-05-01T06:43:03.852Z,2.83
2023-05-01T06:45:31.735Z,4.00
2023-05-01T06:47:58.402Z,2.90
2023-05-01T06:50:25.126Z,2.72
2023-05-01T06:52:51.963Z,2.65
2023-05-01T06:55:18.711Z,2.95
2023-05-01T06:57:45.384Z,2.90
2023-05-01T07:00:13.437Z,3.08
2023-05-01T07:02:41.521Z,2.83
2023-05-01T07:05:08.316Z,3.03
2023-05-01T07:07:34.995Z,2.90
2023-05-01T07:10:01.655Z,3.10
2023-05-01T07:12:28.474Z,3.47
2023-05-01T07:14:55.384Z,3.20
2023-05-01T07:17:22.044Z,3.00
2023-05-01T07:19:50.031Z,3.10
2023-05-01T07:22:16.639Z,3.45
2023-05-01T07:24:43.273Z,3.45
2023-05-01T07:27:09.863Z,3.10
2023-05-01T07:29:38.381Z,3.35
2023-05-01T07:32:05.256Z,3.33
2023-05-01T07:34:31.882Z,2.90
2023-05-01T07:36:59.852Z,2.88
2023-05-01T07:39:26.453Z,3.00
2023-05-01T07:41:52.970Z,2.67
2023-05-01T07:44:19.476Z,2.35
2023-05-01T07:46:46.056Z,3.00
2023-05-01T07:49:12.667Z,3.25
2023-05-01T07:51:39.266Z,2.72
2023-05-01T07:54:07.137Z,3.20
2023-05-01T07:56:33.672Z,3.13
2023-05-01T07:59:00.348Z,2.80
2023-05-01T08:01:26.954Z,3.40
2023-05-01T08:03:53.601Z,3.10
2023-05-01T08:06:20.304Z,3.33
2023-05-01T08:08:47.018Z,3.47
2023-05-01T08:11:14.952Z,3.63
2023-05-01T08:13:41.504Z,3.58
2023-05-01T08:16:08.143Z,3.60
2023-05-01T08:18:34.710Z,3.67
2023-05-01T08:21:01.347Z,3.50
2023-05-01T08:23:27.983Z,3.85
2023-05-01T08:25:54.557Z,4.05
2023-05-01T08:28:23.031Z,4.45
2023-05-01T08:30:49.698Z,3.97
2023-05-01T08:33:16.507Z,3.78
2023-05-01T08:35:43.374Z,3.67
2023-05-01T08:38:10.981Z,4.15
2023-05-01T08:40:38.865Z,4.22
2023-05-01T08:43:05.404Z,3.70
2023-05-01T08:45:34.179Z,3.55
2023-05-01T08:48:00.801Z,3.60
2023-05-01T08:50:27.773Z,3.78
2023-05-01T08:52:56.228Z,3.80
2023-05-01T08:55:23.606Z,3.80
2023-05-01T08:57:51.361Z,3.42
2023-05-01T09:00:19.667Z,3.38
2023-05-01T09:02:50.274Z,3.60
2023-05-01T09:05:18.438Z,3.10
2023-05-01T09:07:46.109Z,3.28
2023-05-01T09:10:13.275Z,3.22
2023-05-01T09:12:41.275Z,3.25
2023-05-01T09:15:09.515Z,3.50
2023-05-01T09:17:36.471Z,3.60
2023-05-01T09:20:05.565Z,3.67
2023-05-01T09:22:33.623Z,3.40
2023-05-01T09:25:00.205Z,4.20
2023-05-01T09:27:27.427Z,4.20
2023-05-01T09:29:54.093Z,4.03
2023-05-01T09:32:22.903Z,4.20
2023-05-01T09:34:51.114Z,4.53
2023-05-01T09:37:30.072Z,4.53
2023-05-01T09:40:07.852Z,4.43
2023-05-01T09:42:35.891Z,4.50
2023-05-01T09:45:04.666Z,4.72
2023-05-01T09:47:31.266Z,4.32
2023-05-01T09:49:58.382Z,4.07
2023-05-01T09:52:28.130Z,4.50
2023-05-01T09:55:18.802Z,3.70
2023-05-01T09:57:52.291Z,4.18
2023-05-01T10:00:31.865Z,4.68
2023-05-01T10:03:13.717Z,4.68
2023-05-01T10:05:53.838Z,4.82
2023-05-01T10:08:44.287Z,4.43
2023-05-01T10:11:23.829Z,4.53
2023-05-01T10:14:13.823Z,4.65
2023-05-01T10:16:53.905Z,3.75
2023-05-01T10:19:27.469Z,4.43
2023-05-01T10:22:06.869Z,4.15
2023-05-01T10:24:42.844Z,4.38
2023-05-01T10:27:24.902Z,4.35
2023-05-01T10:30:08.819Z,4.82
2023-05-01T10:32:42.576Z,4.03
2023-05-01T10:35:28.863Z,4.70
2023-05-01T10:38:05.114Z,5.07
2023-05-01T10:40:53.835Z,4.22
2023-05-01T10:43:28.701Z,4.50
2023-05-01T10:46:33.911Z,4.78
2023-05-01T10:49:07.242Z,4.72
2023-05-01T10:52:05.944Z,4.97
2023-05-01T10:54:39.263Z,4.68
2023-05-01T10:57:49.882Z,4.80
2023-05-01T11:00:23.571Z,4.70
2023-05-01T11:03:35.812Z,4.90
2023-05-01T11:06:09.446Z,4.72
2023-05-01T11:08:48.893Z,4.60
2023-05-01T11:11:56.884Z,5.28
2023-05-01T11:15:07.923Z,4.90
2023-05-01T11:17:48.091Z,5.03
2023-05-01T11:20:52.871Z,4.60
2023-05-01T11:23:26.261Z,4.28
2023-05-01T11:26:10.868Z,5.00
2023-05-01T11:28:44.554Z,4.40
2023-05-01T11:31:26.954Z,4.53
2023-05-01T11:34:00.609Z,5.00
2023-05-01T11:36:53.913Z,4.82
2023-05-01T11:39:34.890Z,4.50
2023-05-01T11:42:09.251Z,4.35
2023-05-01T11:44:48.842Z,5.00
2023-05-01T11:47:23.691Z,5.07
2023-05-01T11:50:02.890Z,4.80
2023-05-01T11:52:43.924Z,4.20
2023-05-01T11:55:23.851Z,4.18
2023-05-01T11:58:03.861Z,4.25
2023-05-01T12:00:44.914Z,4.75
2023-05-01T12:03:26.012Z,4.65
2023-05-01T12:05:59.420Z,4.03
2023-05-01T12:08:38.866Z,4.10
2023-05-01T12:11:12.615Z,4.25
2023-05-01T12:13:51.996Z,4.47
2023-05-01T12:16:25.478Z,3.72
2023-05-01T12:19:06.878Z,3.28
2023-05-01T12:21:46.855Z,3.80
2023-05-01T12:24:26.931Z,3.42
2023-05-01T12:27:07.870Z,3.67
2023-05-01T12:29:42.038Z,3.80
2023-05-01T12:32:21.923Z,5.05
2023-05-01T12:35:02.884Z,5.32
2023-05-01T12:37:36.716Z,5.87
2023-05-01T12:40:19.911Z,5.35
2023-05-01T12:42:57.215Z,6.57
2023-05-01T12:45:36.879Z,6.45
2023-05-01T12:48:19.936Z,7.20
2023-05-01T12:51:01.928Z,6.47
2023-05-01T12:56:14.943Z,6.68
2023-05-01T12:58:48.371Z,6.85
2023-05-01T13:01:32.026Z,7.20
2023-05-01T13:04:05.370Z,6.47
2023-05-01T13:06:46.008Z,5.53
2023-05-01T13:09:25.926Z,5.50
2023-05-01T13:12:06.918Z,5.70
2023-05-01T13:14:47.886Z,5.90
2023-05-01T13:17:23.219Z,6.28
2023-05-01T13:20:03.922Z,6.38
2023-05-01T13:22:45.889Z,6.53
2023-05-01T13:27:59.936Z,6.07
2023-05-01T13:30:34.276Z,6.85
2023-05-01T13:33:16.966Z,6.85
2023-05-01T13:35:56.936Z,6.60
2023-05-01T13:38:46.920Z,6.03
2023-05-01T13:41:28.082Z,6.72
2023-05-01T13:44:01.389Z,5.50
2023-05-01T13:46:41.882Z,5.55
2023-05-01T13:49:26.965Z,5.20
2023-05-01T13:52:06.884Z,4.95
2023-05-01T13:54:50.083Z,5.20
2023-05-01T13:57:29.939Z,5.53
2023-05-01T14:00:06.509Z,4.93
2023-05-01T14:02:50.949Z,4.65
2023-05-01T14:05:26.935Z,5.10
2023-05-01T14:08:06.956Z,5.60
2023-05-01T14:10:41.865Z,5.35
2023-05-01T14:13:23.988Z,5.40
2023-05-01T14:18:36.948Z,5.35
2023-05-01T14:21:10.365Z,5.40
2023-05-01T14:23:49.941Z,4.40
2023-05-01T14:26:24.829Z,5.22
2023-05-01T14:29:04.945Z,4.50
2023-05-01T14:31:44.941Z,4.20
2023-05-01T14:34:18.700Z,4.40
2023-05-01T14:36:57.902Z,4.13
2023-05-01T14:39:32.808Z,4.38
2023-05-01T14:42:13.917Z,3.78
2023-05-01T14:47:34.003Z,3.10
2023-05-01T14:50:13.970Z,3.30
2023-05-01T14:52:47.728Z,2.85
2023-05-01T14:55:32.918Z,2.78
2023-05-01T14:58:13.923Z,2.58
2023-05-01T15:00:53.992Z,2.60
2023-05-01T15:03:34.090Z,2.85
2023-05-01T15:06:07.552Z,2.72
2023-05-01T15:09:01.980Z,2.90
2023-05-01T15:11:35.345Z,2.45
2023-05-01T15:14:15.936Z,2.50
2023-05-01T15:16:49.458Z,2.55
2023-05-01T15:19:29.002Z,2.60
2023-05-01T15:22:02.456Z,2.17
2023-05-01T15:24:41.993Z,2.22
2023-05-01T15:27:15.566Z,2.47
2023-05-01T15:29:56.005Z,2.75
2023-05-01T15:32:36.124Z,2.67
2023-05-01T15:35:09.410Z,2.65
2023-05-01T15:37:49.017Z,3.33
2023-05-01T15:40:28.956Z,2.75
2023-05-01T15:43:10.995Z,2.15
2023-05-01T15:48:25.947Z,2.58
2023-05-01T15:50:59.383Z,2.95
2023-05-01T15:53:38.992Z,3.00
2023-05-01T15:56:18.965Z,2.55
2023-05-01T15:58:52.498Z,2.55
2023-05-01T16:01:32.985Z,2.70
2023-05-01T16:04:06.520Z,2.30
2023-05-01T16:06:47.001Z,2.80
2023-05-01T16:09:29.995Z,2.60
2023-05-01T16:12:10.945Z,2.40
2023-05-01T16:14:44.627Z,2.80
2023-05-01T16:17:24.987Z,2.35
2023-05-01T16:20:07.023Z,2.75
2023-05-01T16:22:47.952Z,2.60
2023-05-01T16:25:27.981Z,2.65
2023-05-01T16:28:12.174Z,2.47
2023-05-01T16:30:45.656Z,2.72
2023-05-01T16:33:29.005Z,2.47
2023-05-01T16:36:02.544Z,2.50
2023-05-01T16:38:42.014Z,2.15
2023-05-01T16:41:16.972Z,2.25
2023-05-01T16:43:57.015Z,2.42
2023-05-01T16:46:30.723Z,2.78
2023-05-01T16:49:12.010Z,3.20
2023-05-01T16:51:45.612Z,3.20
2023-05-01T16:54:25.091Z,3.50
2023-05-01T16:56:58.400Z,2.88
2023-05-01T16:59:38.017Z,2.65
2023-05-01T17:02:18.057Z,3.00
2023-05-01T17:04:59.020Z,2.92
2023-05-01T17:07:39.061Z,2.60
2023-05-01T17:10:12.380Z,2.25
2023-05-01T17:12:51.969Z,2.78
2023-05-01T17:15:25.368Z,2.80
2023-05-01T17:18:05.071Z,3.00
2023-05-01T17:20:39.795Z,2.92
2023-05-01T17:23:19.031Z,4.13
2023-05-01T17:25:59.029Z,3.53
2023-05-01T17:28:38.991Z,4.35
2023-05-01T17:31:20.519Z,3.95
2023-05-01T17:33:55.400Z,4.20
2023-05-01T17:36:35.976Z,4.30
2023-05-01T17:39:16.039Z,4.10
2023-05-01T17:41:55.974Z,4.50
2023-05-01T17:44:29.551Z,4.13
2023-05-01T17:47:08.988Z,3.90
2023-05-01T17:49:49.064Z,4.72
2023-05-01T17:52:23.854Z,4.43
2023-05-01T17:54:56.510Z,4.68
2023-05-01T17:57:23.169Z,5.10
2023-05-01T17:59:49.755Z,5.22
2023-05-01T18:02:16.369Z,4.68
2023-05-01T18:04:43.031Z,4.57
2023-05-01T18:07:09.722Z,5.05
2023-05-01T18:09:37.747Z,5.25
2023-05-01T18:12:04.751Z,5.30
2023-05-01T18:14:31.309Z,4.70
2023-05-01T18:16:58.020Z,4.90
2023-05-01T18:19:24.608Z,4.60
2023-05-01T18:21:51.287Z,4.85
2023-05-01T18:24:17.868Z,5.15
2023-05-01T18:26:45.843Z,5.38
2023-05-01T18:29:12.388Z,4.93
2023-05-01T18:31:39.013Z,5.50
2023-05-01T18:34:05.837Z,5.43
2023-05-01T18:36:32.525Z,5.28
2023-05-01T18:38:59.186Z,5.38
2023-05-01T18:41:25.746Z,5.35
2023-05-01T18:43:57.117Z,5.38
2023-05-01T18:46:24.809Z,5.97
2023-05-01T18:48:51.464Z,5.82
2023-05-01T18:51:18.102Z,6.25
2023-05-01T18:53:44.794Z,6.13
2023-05-01T18:56:11.421Z,6.30
2023-05-01T18:58:37.995Z,6.03
2023-05-01T19:01:06.049Z,6.53
2023-05-01T19:03:32.657Z,7.10
2023-05-01T19:05:59.309Z,7.25
2023-05-01T19:08:26.082Z,7.63
2023-05-01T19:10:53.085Z,7.97
2023-05-01T19:13:19.781Z,7.93
2023-05-01T19:15:46.475Z,7.85
2023-05-01T19:18:14.519Z,8.00
2023-05-01T19:20:41.110Z,8.45
2023-05-01T19:23:07.665Z,7.63
2023-05-01T19:25:34.305Z,8.05
2023-05-01T19:28:00.931Z,7.90
2023-05-01T19:30:27.526Z,8.00
2023-05-01T19:32:54.234Z,8.25
2023-05-01T19:35:22.249Z,8.30
2023-05-01T19:37:53.791Z,8.35
2023-05-01T19:40:20.414Z,8.73
2023-05-01T19:42:47.004Z,8.20
2023-05-01T19:45:15.112Z,8.35
2023-05-01T19:47:43.940Z,8.32
2023-05-01T19:50:10.815Z,8.30
2023-05-01T19:52:38.729Z,8.23
2023-05-01T19:55:06.132Z,8.63
2023-05-01T19:57:32.767Z,8.43
2023-05-01T19:59:59.595Z,8.35
2023-05-01T20:02:26.494Z,8.52
2023-05-01T20:04:53.292Z,8.63
2023-05-01T20:07:20.083Z,8.18
2023-05-01T20:09:48.085Z,8.90
2023-05-01T20:12:14.663Z,8.93
2023-05-01T20:14:41.353Z,9.45
2023-05-01T20:17:08.077Z,9.13
2023-05-01T20:19:34.940Z,10.00
2023-05-01T20:22:01.550Z,9.02
2023-05-01T20:24:28.211Z,9.20
2023-05-01T20:26:56.161Z,10.68
2023-05-01T20:29:22.826Z,9.25
2023-05-01T20:31:49.402Z,10.45
2023-05-01T20:34:15.969Z,10.85
2023-05-01T20:36:42.584Z,10.68
2023-05-01T20:39:09.324Z,10.57
2023-05-01T20:41:35.951Z,10.27
2023-05-01T20:44:04.203Z,11.10
2023-05-01T20:46:30.837Z,10.23
2023-05-01T20:48:57.449Z,10.55
2023-05-01T20:51:24.070Z,10.27
2023-05-01T20:53:50.651Z,10.75
2023-05-01T20:56:17.648Z,10.85
2023-05-01T20:58:44.290Z,11.63
2023-05-01T21:01:12.335Z,12.45
2023-05-01T21:03:40.543Z,12.20
2023-05-01T21:06:07.554Z,12.55
2023-05-01T21:08:34.207Z,12.57
2023-05-01T21:11:01.447Z,13.18
2023-05-01T21:13:28.436Z,13.00
2023-05-01T21:15:55.306Z,13.13
2023-05-01T21:18:23.811Z,14.15
2023-05-01T21:20:50.583Z,13.20
2023-05-01T21:23:18.101Z,14.70
2023-05-01T21:25:44.715Z,15.77
2023-05-01T21:28:11.963Z,15.13
2023-05-01T21:30:39.125Z,15.48
2023-05-01T21:33:07.752Z,16.80
2023-05-01T21:35:35.877Z,16.17
2023-05-01T21:38:04.270Z,16.52
2023-05-01T21:40:35.932Z,17.10
2023-05-01T21:43:05.217Z,17.25
2023-05-01T21:45:32.200Z,16.77
2023-05-01T21:47:58.906Z,19.38
2023-05-01T21:50:27.079Z,18.55
2023-05-01T21:52:55.152Z,19.15
2023-05-01T21:55:24.947Z,18.48
2023-05-01T21:57:51.864Z,19.92
2023-05-01T22:00:20.404Z,19.98
2023-05-01T22:02:49.405Z,19.77
2023-05-01T22:05:17.736Z,19.52
2023-05-01T22:07:45.361Z,20.17
2023-05-01T22:10:15.710Z,20.73
2023-05-01T22:12:43.217Z,21.33
2023-05-01T22:15:11.358Z,21.35
2023-05-01T22:17:39.603Z,21.63
2023-05-01T22:20:09.141Z,22.23
2023-05-01T22:22:37.080Z,21.98
2023-05-01T22:25:04.141Z,23.70
2023-05-01T22:27:32.158Z,22.42
2023-05-01T22:29:58.923Z,23.40
2023-05-01T22:32:26.074Z,23.10
2023-05-01T22:34:52.721Z,24.25
2023-05-01T22:37:19.437Z,24.42
2023-05-01T22:39:46.326Z,24.55
2023-05-01T22:42:13.121Z,25.83
2023-05-01T22:44:41.623Z,24.52
2023-05-01T22:47:08.246Z,24.27
2023-05-01T22:49:34.899Z,23.35
2023-05-01T22:52:02.021Z,24.40
2023-05-01T22:54:28.679Z,24.77
2023-05-01T22:56:55.321Z,24.85
2023-05-01T22:59:22.371Z,23.90
2023-05-01T23:01:50.394Z,24.08
2023-05-01T23:04:17.195Z,24.65
2023-05-01T23:06:44.000Z,25.05
2023-05-01T23:09:10.724Z,26.05
2023-05-01T23:11:40.535Z,26.00
2023-05-01T23:14:07.259Z,28.10
2023-05-01T23:16:40.619Z,27.45
2023-05-01T23:19:18.460Z,28.95
2023-05-01T23:21:45.046Z,28.30
2023-05-01T23:24:12.803Z,29.67
2023-05-01T23:26:41.333Z,29.35
2023-05-01T23:29:07.956Z,29.02
2023-05-01T23:31:35.705Z,31.50
2023-05-01T23:34:02.765Z,29.75
2023-05-01T23:36:30.989Z,31.15
2023-05-01T23:38:57.597Z,32.08
2023-05-01T23:41:24.274Z,30.77
2023-05-01T23:43:50.979Z,30.33
2023-05-01T23:46:17.742Z,32.38
2023-05-01T23:48:44.559Z,31.52
2023-05-01T23:51:11.286Z,31.52
2023-05-01T23:53:39.470Z,30.40
2023-05-01T23:56:06.524Z,29.48
2023-05-01T23:58:33.091Z,29.02
